KGPI

Glacier Park International Airport

Airport
ICAO code
KGPI
Summary
ICAO Region
NAM
ICAO Territory
Location

Kalispell, Montana,

Elevation
2977 ft
Coordinates
48° 18' 41" N , 114° 15' 17" W
KCC
Airport CFIT
Altimeter Temperature Error Correction
Airport WX
Mountain Waves
Metar
Observation
KGPI 310755Z AUTO 00000KT 10SM CLR M04/M06 A2971 RMK AO2 SLP078 T10391056
Station
Kalispell, Glacier Park International Airport
Date/Time
2023-03-31 07:55:00
Wind direction
Wind speed
00 kts
Lowest cloud amount
n/a
Temperature
-3.9°C
Dew point
-5.6°C
Humidity
87%
Weather condition
n/a

Description

Glacier Park International Airport is a public airport located 10 km northeast of the central business district of Kalispell, in Flathead County, Montana. It also serves the towns of Evergreen, Columbia Falls and Whitefish as well as Glacier National Park.

Climatology

Continental climate (Köppen climate classification DFb) with cold winters and warm, dry summers.

Airport map

Aerial View

SKYbrary Partners:

Safety knowledge contributed by: